Sinks Grove, WV (24976)

2:33 PM EST on March 01, 2015 (GMT -0500)
Organ Cave Weather | Change Station
CLOSE
Current Station
Personal Weather Station
Location: Organ Cave, WV
Elevation: 2310 ft
Nearby Weather Stations

Elev 2310 ft 37.71 °N, 80.42 °W | Updated 12 minutes ago

Overcast
Overcast
38.8 °F
Feels Like 39 °F
N
2.2
Wind Variable Wind from NE

Today
High -- | Low -- °F
--% Chance of Precip.
Yesterday
High -- | Low -- °F
Precip. -- in
6:53 AM 6:15 PM
Waxing Gibbous, 87% visible
Pressure 30.32 in
Visibility 4.0 miles
Clouds Overcast 2300 ft
Windchill 39 °F
Dew Point 35 °F
Humidity 85%
Rainfall 0.05 in
Snow Depth Not available.
UV 2 out of 12
Pollen 1.60 out of 12
Air Quality Not available.
Flu Activity Not available.
METAR KLWB 011915Z AUTO 01003KT 4SM BR OVC023 02/00 A3032 RMK AO2 T00150000

More Conditions Fewer Conditions

Pressure 30.32 in
Visibility 4.0 miles
Clouds Overcast 2300 ft
Windchill 39 °F
Dew Point 35 °F
Humidity 85%
Rainfall 0.05 in
Snow Depth Not available.
UV 2 out of 12
Pollen 1.60 out of 12
Air Quality Not available.
Flu Activity Not available.
METAR KLWB 011915Z AUTO 01003KT 4SM BR OVC023 02/00 A3032 RMK AO2 T00150000

More Conditions Fewer Conditions

10-Day Weather Forecast

Almanac

Astronomy

Mar. 01, 2015 Rise Set
Actual Time
Civil Twilight
Nautical Twilight
Astronomical Twilight
Moon
Length of Visible Light
Length of Day
Tomorrow will be .
, % of the Moon is Illuminated

Today's Extremes

State Highs State Lows

Community

WunderPhotos

Upload Photos

1,801,491 photos uploaded!

WunderBlogs® & News

Nearby

Air Quality

  Air Quality AQ Index Pollutant
Not available.

Snow Depth

Station Depth Elevation

Earthquake Activity

City Distance Mag. Time & Date
Minimum magnitude displayed is 2.5.

Coastal Water Temperatures

Place Temperature

Nearby Weather Stations